sensor_id;sensor_type;location;lat;lon;timestamp;P1;durP1;ratioP1;P2;durP2;ratioP2
41426;SDS011;27171;51.812;19.514;2023-03-01T00:00:49;45.30;;;21.63;;
41426;SDS011;27171;51.812;19.514;2023-03-01T00:03:51;40.85;;;21.58;;
41426;SDS011;27171;51.812;19.514;2023-03-01T00:06:52;43.78;;;21.60;;
41426;SDS011;27171;51.812;19.514;2023-03-01T00:09:54;41.80;;;21.90;;
41426;SDS011;27171;51.812;19.514;2023-03-01T00:12:55;40.70;;;21.55;;
41426;SDS011;27171;51.812;19.514;2023-03-01T00:15:56;42.47;;;22.17;;
41426;SDS011;27171;51.812;19.514;2023-03-01T00:18:57;46.75;;;21.67;;
41426;SDS011;27171;51.812;19.514;2023-03-01T00:21:58;44.90;;;23.15;;
41426;SDS011;27171;51.812;19.514;2023-03-01T00:24:59;39.78;;;21.65;;
41426;SDS011;27171;51.812;19.514;2023-03-01T00:28:01;39.30;;;21.85;;
41426;SDS011;27171;51.812;19.514;2023-03-01T00:31:03;40.22;;;21.25;;
41426;SDS011;27171;51.812;19.514;2023-03-01T00:34:09;43.55;;;22.95;;
41426;SDS011;27171;51.812;19.514;2023-03-01T00:37:10;44.58;;;23.95;;
41426;SDS011;27171;51.812;19.514;2023-03-01T00:40:11;36.28;;;22.70;;
41426;SDS011;27171;51.812;19.514;2023-03-01T00:43:13;51.13;;;23.80;;
41426;SDS011;27171;51.812;19.514;2023-03-01T00:46:15;41.88;;;20.95;;
41426;SDS011;27171;51.812;19.514;2023-03-01T00:49:17;45.03;;;22.02;;
41426;SDS011;27171;51.812;19.514;2023-03-01T00:52:18;39.63;;;21.27;;
41426;SDS011;27171;51.812;19.514;2023-03-01T00:55:20;36.10;;;18.80;;
41426;SDS011;27171;51.812;19.514;2023-03-01T00:58:21;39.67;;;20.63;;
41426;SDS011;27171;51.812;19.514;2023-03-01T01:01:24;39.05;;;21.52;;
41426;SDS011;27171;51.812;19.514;2023-03-01T01:04:27;35.75;;;19.30;;
41426;SDS011;27171;51.812;19.514;2023-03-01T01:07:28;38.55;;;20.15;;
41426;SDS011;27171;51.812;19.514;2023-03-01T01:10:29;39.15;;;20.77;;
41426;SDS011;27171;51.812;19.514;2023-03-01T01:13:30;37.78;;;19.92;;
41426;SDS011;27171;51.812;19.514;2023-03-01T01:16:31;37.08;;;19.17;;
41426;SDS011;27171;51.812;19.514;2023-03-01T01:19:32;36.00;;;19.80;;
41426;SDS011;27171;51.812;19.514;2023-03-01T01:22:34;34.97;;;18.00;;
41426;SDS011;27171;51.812;19.514;2023-03-01T01:25:35;35.05;;;19.02;;
41426;SDS011;27171;51.812;19.514;2023-03-01T01:28:36;37.40;;;19.02;;
41426;SDS011;27171;51.812;19.514;2023-03-01T01:31:38;34.70;;;19.90;;
41426;SDS011;27171;51.812;19.514;2023-03-01T01:34:41;31.70;;;17.42;;
41426;SDS011;27171;51.812;19.514;2023-03-01T01:37:42;33.28;;;17.88;;
41426;SDS011;27171;51.812;19.514;2023-03-01T01:40:44;33.63;;;18.50;;
41426;SDS011;27171;51.812;19.514;2023-03-01T01:44:08;34.70;;;18.52;;
41426;SDS011;27171;51.812;19.514;2023-03-01T01:47:13;34.97;;;18.33;;
41426;SDS011;27171;51.812;19.514;2023-03-01T01:50:20;31.05;;;17.73;;
41426;SDS011;27171;51.812;19.514;2023-03-01T01:53:22;39.55;;;20.65;;
41426;SDS011;27171;51.812;19.514;2023-03-01T01:56:25;37.97;;;19.85;;
41426;SDS011;27171;51.812;19.514;2023-03-01T01:59:29;41.47;;;21.35;;
41426;SDS011;27171;51.812;19.514;2023-03-01T02:02:32;35.33;;;19.77;;
41426;SDS011;27171;51.812;19.514;2023-03-01T02:08:50;36.60;;;19.08;;
41426;SDS011;27171;51.812;19.514;2023-03-01T02:11:53;32.90;;;18.42;;
41426;SDS011;27171;51.812;19.514;2023-03-01T02:14:54;37.97;;;19.25;;
41426;SDS011;27171;51.812;19.514;2023-03-01T02:17:55;37.78;;;18.20;;
41426;SDS011;27171;51.812;19.514;2023-03-01T02:24:18;44.28;;;21.30;;
41426;SDS011;27171;51.812;19.514;2023-03-01T02:30:57;46.28;;;22.20;;
41426;SDS011;27171;51.812;19.514;2023-03-01T02:33:58;44.30;;;23.17;;
41426;SDS011;27171;51.812;19.514;2023-03-01T02:37:01;52.38;;;25.92;;
41426;SDS011;27171;51.812;19.514;2023-03-01T02:40:13;44.75;;;24.58;;
41426;SDS011;27171;51.812;19.514;2023-03-01T02:43:19;42.92;;;23.17;;
41426;SDS011;27171;51.812;19.514;2023-03-01T02:46:26;41.95;;;23.30;;
41426;SDS011;27171;51.812;19.514;2023-03-01T02:49:29;42.55;;;22.98;;
41426;SDS011;27171;51.812;19.514;2023-03-01T02:55:49;42.80;;;21.02;;
41426;SDS011;27171;51.812;19.514;2023-03-01T02:58:51;41.10;;;21.23;;
41426;SDS011;27171;51.812;19.514;2023-03-01T03:01:53;41.10;;;22.88;;
41426;SDS011;27171;51.812;19.514;2023-03-01T03:04:54;41.67;;;23.63;;
41426;SDS011;27171;51.812;19.514;2023-03-01T03:07:56;45.58;;;24.02;;
41426;SDS011;27171;51.812;19.514;2023-03-01T03:10:58;45.88;;;23.88;;
41426;SDS011;27171;51.812;19.514;2023-03-01T03:13:59;43.17;;;22.08;;
41426;SDS011;27171;51.812;19.514;2023-03-01T03:17:01;45.80;;;23.75;;
41426;SDS011;27171;51.812;19.514;2023-03-01T03:20:02;50.20;;;24.60;;
41426;SDS011;27171;51.812;19.514;2023-03-01T03:23:05;42.45;;;23.10;;
41426;SDS011;27171;51.812;19.514;2023-03-01T03:26:06;40.63;;;22.13;;
41426;SDS011;27171;51.812;19.514;2023-03-01T03:29:07;41.08;;;23.38;;
41426;SDS011;27171;51.812;19.514;2023-03-01T03:32:08;41.47;;;22.20;;
41426;SDS011;27171;51.812;19.514;2023-03-01T03:35:09;44.70;;;23.40;;
41426;SDS011;27171;51.812;19.514;2023-03-01T03:38:11;45.13;;;23.92;;
41426;SDS011;27171;51.812;19.514;2023-03-01T03:41:13;41.17;;;22.95;;
41426;SDS011;27171;51.812;19.514;2023-03-01T03:44:14;44.03;;;24.33;;
41426;SDS011;27171;51.812;19.514;2023-03-01T03:47:15;45.33;;;25.63;;
41426;SDS011;27171;51.812;19.514;2023-03-01T03:50:17;46.28;;;25.85;;
41426;SDS011;27171;51.812;19.514;2023-03-01T03:53:19;50.03;;;24.50;;
41426;SDS011;27171;51.812;19.514;2023-03-01T03:56:21;42.33;;;23.17;;
41426;SDS011;27171;51.812;19.514;2023-03-01T03:59:23;45.05;;;23.15;;
41426;SDS011;27171;51.812;19.514;2023-03-01T04:02:24;44.88;;;23.75;;
41426;SDS011;27171;51.812;19.514;2023-03-01T04:05:25;44.30;;;24.45;;
41426;SDS011;27171;51.812;19.514;2023-03-01T04:08:27;44.88;;;23.92;;
41426;SDS011;27171;51.812;19.514;2023-03-01T04:11:28;47.85;;;24.63;;
41426;SDS011;27171;51.812;19.514;2023-03-01T04:14:29;40.85;;;24.40;;
41426;SDS011;27171;51.812;19.514;2023-03-01T04:17:30;48.28;;;24.17;;
41426;SDS011;27171;51.812;19.514;2023-03-01T04:20:33;43.03;;;23.50;;
41426;SDS011;27171;51.812;19.514;2023-03-01T04:23:35;42.50;;;23.65;;
41426;SDS011;27171;51.812;19.514;2023-03-01T04:26:36;44.83;;;24.52;;
41426;SDS011;27171;51.812;19.514;2023-03-01T04:29:37;48.33;;;24.17;;
41426;SDS011;27171;51.812;19.514;2023-03-01T04:32:38;47.58;;;26.02;;
41426;SDS011;27171;51.812;19.514;2023-03-01T04:35:39;49.78;;;25.00;;
41426;SDS011;27171;51.812;19.514;2023-03-01T04:38:40;46.78;;;25.30;;
41426;SDS011;27171;51.812;19.514;2023-03-01T04:41:42;46.15;;;25.58;;
41426;SDS011;27171;51.812;19.514;2023-03-01T04:44:43;44.83;;;25.63;;
41426;SDS011;27171;51.812;19.514;2023-03-01T04:47:45;46.15;;;24.73;;
41426;SDS011;27171;51.812;19.514;2023-03-01T04:50:46;46.38;;;23.58;;
41426;SDS011;27171;51.812;19.514;2023-03-01T04:53:48;45.85;;;25.40;;
41426;SDS011;27171;51.812;19.514;2023-03-01T04:56:49;46.50;;;26.20;;
41426;SDS011;27171;51.812;19.514;2023-03-01T04:59:50;44.40;;;23.85;;
41426;SDS011;27171;51.812;19.514;2023-03-01T05:02:59;42.40;;;22.80;;
41426;SDS011;27171;51.812;19.514;2023-03-01T05:06:00;43.35;;;23.02;;
41426;SDS011;27171;51.812;19.514;2023-03-01T05:09:01;47.00;;;25.33;;
41426;SDS011;27171;51.812;19.514;2023-03-01T05:12:03;46.20;;;25.15;;
41426;SDS011;27171;51.812;19.514;2023-03-01T05:15:04;45.88;;;24.55;;
41426;SDS011;27171;51.812;19.514;2023-03-01T05:18:06;42.90;;;23.90;;
41426;SDS011;27171;51.812;19.514;2023-03-01T05:21:08;47.60;;;25.95;;
41426;SDS011;27171;51.812;19.514;2023-03-01T05:24:11;45.50;;;23.67;;
41426;SDS011;27171;51.812;19.514;2023-03-01T05:27:12;47.40;;;26.63;;
41426;SDS011;27171;51.812;19.514;2023-03-01T05:30:13;43.30;;;24.13;;
41426;SDS011;27171;51.812;19.514;2023-03-01T05:33:15;48.47;;;24.40;;
41426;SDS011;27171;51.812;19.514;2023-03-01T05:36:16;46.60;;;24.55;;
41426;SDS011;27171;51.812;19.514;2023-03-01T05:39:17;41.60;;;24.67;;
41426;SDS011;27171;51.812;19.514;2023-03-01T05:42:18;45.47;;;24.45;;
41426;SDS011;27171;51.812;19.514;2023-03-01T05:45:19;46.25;;;25.15;;
41426;SDS011;27171;51.812;19.514;2023-03-01T05:48:21;42.88;;;24.20;;
41426;SDS011;27171;51.812;19.514;2023-03-01T05:51:22;49.17;;;25.38;;
41426;SDS011;27171;51.812;19.514;2023-03-01T05:54:23;53.88;;;26.58;;
41426;SDS011;27171;51.812;19.514;2023-03-01T05:57:24;54.92;;;28.50;;
41426;SDS011;27171;51.812;19.514;2023-03-01T06:00:28;53.63;;;28.00;;
41426;SDS011;27171;51.812;19.514;2023-03-01T06:03:30;45.22;;;25.27;;
41426;SDS011;27171;51.812;19.514;2023-03-01T06:06:35;46.20;;;25.27;;
41426;SDS011;27171;51.812;19.514;2023-03-01T06:09:36;52.97;;;28.73;;
41426;SDS011;27171;51.812;19.514;2023-03-01T06:12:38;60.63;;;32.05;;
41426;SDS011;27171;51.812;19.514;2023-03-01T06:15:40;52.50;;;29.25;;
41426;SDS011;27171;51.812;19.514;2023-03-01T06:18:41;59.20;;;31.45;;
41426;SDS011;27171;51.812;19.514;2023-03-01T06:21:42;58.75;;;31.48;;
41426;SDS011;27171;51.812;19.514;2023-03-01T06:24:43;58.50;;;31.92;;
41426;SDS011;27171;51.812;19.514;2023-03-01T06:27:45;63.80;;;35.47;;
41426;SDS011;27171;51.812;19.514;2023-03-01T06:30:48;62.25;;;32.88;;
41426;SDS011;27171;51.812;19.514;2023-03-01T06:33:50;67.93;;;32.85;;
41426;SDS011;27171;51.812;19.514;2023-03-01T06:36:51;59.97;;;33.70;;
41426;SDS011;27171;51.812;19.514;2023-03-01T06:39:52;61.95;;;36.85;;
41426;SDS011;27171;51.812;19.514;2023-03-01T06:42:53;63.10;;;36.30;;
41426;SDS011;27171;51.812;19.514;2023-03-01T06:45:54;67.55;;;39.40;;
41426;SDS011;27171;51.812;19.514;2023-03-01T06:48:55;74.47;;;40.78;;
41426;SDS011;27171;51.812;19.514;2023-03-01T06:51:56;66.22;;;38.75;;
41426;SDS011;27171;51.812;19.514;2023-03-01T06:54:58;63.90;;;36.35;;
41426;SDS011;27171;51.812;19.514;2023-03-01T06:58:00;64.78;;;34.13;;
41426;SDS011;27171;51.812;19.514;2023-03-01T07:01:08;56.38;;;31.90;;
41426;SDS011;27171;51.812;19.514;2023-03-01T07:04:10;51.08;;;29.85;;
41426;SDS011;27171;51.812;19.514;2023-03-01T07:07:13;52.67;;;31.95;;
41426;SDS011;27171;51.812;19.514;2023-03-01T07:13:15;49.55;;;28.17;;
41426;SDS011;27171;51.812;19.514;2023-03-01T07:16:16;64.47;;;32.35;;
41426;SDS011;27171;51.812;19.514;2023-03-01T07:22:18;60.33;;;34.83;;
41426;SDS011;27171;51.812;19.514;2023-03-01T07:25:19;60.58;;;36.03;;
41426;SDS011;27171;51.812;19.514;2023-03-01T07:28:22;51.53;;;32.17;;
41426;SDS011;27171;51.812;19.514;2023-03-01T07:31:24;50.80;;;31.13;;
41426;SDS011;27171;51.812;19.514;2023-03-01T07:34:25;54.42;;;30.90;;
41426;SDS011;27171;51.812;19.514;2023-03-01T07:37:26;52.45;;;31.25;;
41426;SDS011;27171;51.812;19.514;2023-03-01T07:40:27;54.45;;;33.00;;
41426;SDS011;27171;51.812;19.514;2023-03-01T07:43:29;49.00;;;29.77;;
41426;SDS011;27171;51.812;19.514;2023-03-01T07:46:30;48.05;;;29.52;;
41426;SDS011;27171;51.812;19.514;2023-03-01T07:49:31;41.22;;;24.73;;
41426;SDS011;27171;51.812;19.514;2023-03-01T07:55:33;48.72;;;26.55;;
41426;SDS011;27171;51.812;19.514;2023-03-01T07:58:36;41.88;;;23.58;;
41426;SDS011;27171;51.812;19.514;2023-03-01T08:01:38;47.40;;;27.80;;
41426;SDS011;27171;51.812;19.514;2023-03-01T08:07:41;31.85;;;20.25;;
41426;SDS011;27171;51.812;19.514;2023-03-01T08:13:43;36.83;;;20.15;;
41426;SDS011;27171;51.812;19.514;2023-03-01T08:19:45;36.00;;;19.42;;
41426;SDS011;27171;51.812;19.514;2023-03-01T08:25:47;31.27;;;19.45;;
41426;SDS011;27171;51.812;19.514;2023-03-01T08:28:48;37.42;;;22.63;;
41426;SDS011;27171;51.812;19.514;2023-03-01T08:31:50;38.22;;;24.13;;
41426;SDS011;27171;51.812;19.514;2023-03-01T08:34:51;34.33;;;22.90;;
41426;SDS011;27171;51.812;19.514;2023-03-01T08:40:53;31.35;;;17.40;;
41426;SDS011;27171;51.812;19.514;2023-03-01T08:43:54;34.83;;;22.25;;
41426;SDS011;27171;51.812;19.514;2023-03-01T08:46:56;25.42;;;17.42;;
41426;SDS011;27171;51.812;19.514;2023-03-01T08:49:57;31.27;;;19.60;;
41426;SDS011;27171;51.812;19.514;2023-03-01T08:56:00;25.48;;;16.25;;
41426;SDS011;27171;51.812;19.514;2023-03-01T08:59:01;22.73;;;15.40;;
41426;SDS011;27171;51.812;19.514;2023-03-01T09:05:04;22.00;;;14.13;;
41426;SDS011;27171;51.812;19.514;2023-03-01T09:08:05;22.75;;;14.65;;
41426;SDS011;27171;51.812;19.514;2023-03-01T09:14:09;25.50;;;14.60;;
41426;SDS011;27171;51.812;19.514;2023-03-01T09:17:11;24.42;;;14.07;;
41426;SDS011;27171;51.812;19.514;2023-03-01T09:20:12;22.77;;;14.85;;
41426;SDS011;27171;51.812;19.514;2023-03-01T09:23:14;23.23;;;15.30;;
41426;SDS011;27171;51.812;19.514;2023-03-01T09:26:17;24.80;;;15.55;;
41426;SDS011;27171;51.812;19.514;2023-03-01T09:29:22;21.67;;;13.95;;
41426;SDS011;27171;51.812;19.514;2023-03-01T09:32:26;22.73;;;13.27;;
41426;SDS011;27171;51.812;19.514;2023-03-01T09:38:29;20.80;;;13.77;;
41426;SDS011;27171;51.812;19.514;2023-03-01T09:44:56;18.40;;;11.55;;
41426;SDS011;27171;51.812;19.514;2023-03-01T09:48:00;18.83;;;11.23;;
41426;SDS011;27171;51.812;19.514;2023-03-01T09:51:04;20.75;;;13.15;;
41426;SDS011;27171;51.812;19.514;2023-03-01T09:54:13;24.95;;;15.20;;
41426;SDS011;27171;51.812;19.514;2023-03-01T10:13:34;24.95;;;14.95;;
41426;SDS011;27171;51.812;19.514;2023-03-01T10:23:16;23.55;;;16.25;;
41426;SDS011;27171;51.812;19.514;2023-03-01T10:32:50;29.80;;;16.08;;
41426;SDS011;27171;51.812;19.514;2023-03-01T10:35:53;25.20;;;15.48;;
41426;SDS011;27171;51.812;19.514;2023-03-01T10:38:55;22.60;;;14.07;;
41426;SDS011;27171;51.812;19.514;2023-03-01T10:42:01;17.88;;;12.13;;
41426;SDS011;27171;51.812;19.514;2023-03-01T10:50:22;18.93;;;10.40;;
41426;SDS011;27171;51.812;19.514;2023-03-01T10:53:24;16.90;;;10.18;;
41426;SDS011;27171;51.812;19.514;2023-03-01T10:56:45;14.70;;;9.10;;
41426;SDS011;27171;51.812;19.514;2023-03-01T11:00:00;13.32;;;6.97;;
41426;SDS011;27171;51.812;19.514;2023-03-01T11:03:12;10.60;;;6.47;;
41426;SDS011;27171;51.812;19.514;2023-03-01T11:06:21;11.35;;;6.18;;
41426;SDS011;27171;51.812;19.514;2023-03-01T11:09:23;11.25;;;6.03;;
41426;SDS011;27171;51.812;19.514;2023-03-01T11:12:25;11.88;;;7.07;;
41426;SDS011;27171;51.812;19.514;2023-03-01T11:15:27;9.98;;;6.55;;
41426;SDS011;27171;51.812;19.514;2023-03-01T11:18:29;10.95;;;7.10;;
41426;SDS011;27171;51.812;19.514;2023-03-01T11:21:32;11.93;;;8.57;;
41426;SDS011;27171;51.812;19.514;2023-03-01T11:24:45;13.95;;;8.70;;
41426;SDS011;27171;51.812;19.514;2023-03-01T11:27:48;14.70;;;9.35;;
41426;SDS011;27171;51.812;19.514;2023-03-01T11:34:15;16.35;;;9.90;;
41426;SDS011;27171;51.812;19.514;2023-03-01T11:37:50;12.40;;;8.07;;
41426;SDS011;27171;51.812;19.514;2023-03-01T12:08:20;10.25;;;5.88;;
41426;SDS011;27171;51.812;19.514;2023-03-01T12:11:39;11.15;;;6.55;;
41426;SDS011;27171;51.812;19.514;2023-03-01T12:27:33;9.23;;;6.38;;
41426;SDS011;27171;51.812;19.514;2023-03-01T12:31:05;9.90;;;6.32;;
41426;SDS011;27171;51.812;19.514;2023-03-01T12:44:10;10.82;;;5.05;;
41426;SDS011;27171;51.812;19.514;2023-03-01T12:50:46;8.32;;;4.65;;
41426;SDS011;27171;51.812;19.514;2023-03-01T12:53:51;13.48;;;5.95;;
41426;SDS011;27171;51.812;19.514;2023-03-01T12:56:55;11.65;;;5.95;;
41426;SDS011;27171;51.812;19.514;2023-03-01T13:06:39;8.32;;;5.22;;
41426;SDS011;27171;51.812;19.514;2023-03-01T13:09:46;9.75;;;5.93;;
41426;SDS011;27171;51.812;19.514;2023-03-01T13:19:29;8.13;;;4.78;;
41426;SDS011;27171;51.812;19.514;2023-03-01T13:22:31;9.07;;;5.32;;
41426;SDS011;27171;51.812;19.514;2023-03-01T13:25:34;9.07;;;5.45;;
41426;SDS011;27171;51.812;19.514;2023-03-01T13:34:41;8.57;;;5.28;;
41426;SDS011;27171;51.812;19.514;2023-03-01T13:37:44;9.85;;;6.30;;
41426;SDS011;27171;51.812;19.514;2023-03-01T13:43:52;10.45;;;6.07;;
41426;SDS011;27171;51.812;19.514;2023-03-01T13:50:00;8.93;;;6.40;;
41426;SDS011;27171;51.812;19.514;2023-03-01T13:53:05;10.48;;;6.10;;
41426;SDS011;27171;51.812;19.514;2023-03-01T13:56:17;10.63;;;7.22;;
41426;SDS011;27171;51.812;19.514;2023-03-01T13:59:24;12.88;;;6.78;;
41426;SDS011;27171;51.812;19.514;2023-03-01T14:02:25;14.07;;;7.53;;
41426;SDS011;27171;51.812;19.514;2023-03-01T14:08:28;9.90;;;5.25;;
41426;SDS011;27171;51.812;19.514;2023-03-01T14:11:43;11.65;;;5.65;;
41426;SDS011;27171;51.812;19.514;2023-03-01T14:21:22;9.98;;;6.00;;
41426;SDS011;27171;51.812;19.514;2023-03-01T14:24:24;7.70;;;4.43;;
41426;SDS011;27171;51.812;19.514;2023-03-01T14:30:31;8.82;;;5.10;;
41426;SDS011;27171;51.812;19.514;2023-03-01T14:33:36;7.75;;;4.43;;
41426;SDS011;27171;51.812;19.514;2023-03-01T14:36:38;11.32;;;5.57;;
41426;SDS011;27171;51.812;19.514;2023-03-01T14:39:39;7.55;;;5.30;;
41426;SDS011;27171;51.812;19.514;2023-03-01T14:42:41;13.30;;;8.70;;
41426;SDS011;27171;51.812;19.514;2023-03-01T14:45:46;11.18;;;6.70;;
41426;SDS011;27171;51.812;19.514;2023-03-01T14:48:54;11.45;;;8.13;;
41426;SDS011;27171;51.812;19.514;2023-03-01T14:52:05;10.93;;;6.97;;
41426;SDS011;27171;51.812;19.514;2023-03-01T14:55:18;11.00;;;5.72;;
41426;SDS011;27171;51.812;19.514;2023-03-01T14:58:22;11.48;;;6.68;;
41426;SDS011;27171;51.812;19.514;2023-03-01T15:01:25;9.65;;;5.68;;
41426;SDS011;27171;51.812;19.514;2023-03-01T15:04:28;9.98;;;6.28;;
41426;SDS011;27171;51.812;19.514;2023-03-01T15:07:31;12.48;;;6.57;;
41426;SDS011;27171;51.812;19.514;2023-03-01T15:10:36;10.30;;;6.45;;
41426;SDS011;27171;51.812;19.514;2023-03-01T15:13:39;14.48;;;8.20;;
41426;SDS011;27171;51.812;19.514;2023-03-01T15:16:41;13.38;;;8.00;;
41426;SDS011;27171;51.812;19.514;2023-03-01T15:19:42;11.73;;;6.93;;
41426;SDS011;27171;51.812;19.514;2023-03-01T15:22:46;12.77;;;7.30;;
41426;SDS011;27171;51.812;19.514;2023-03-01T15:25:47;13.05;;;8.13;;
41426;SDS011;27171;51.812;19.514;2023-03-01T15:28:49;13.60;;;9.02;;
41426;SDS011;27171;51.812;19.514;2023-03-01T15:32:00;12.57;;;8.32;;
41426;SDS011;27171;51.812;19.514;2023-03-01T15:35:32;12.35;;;8.00;;
41426;SDS011;27171;51.812;19.514;2023-03-01T15:38:50;18.65;;;10.20;;
41426;SDS011;27171;51.812;19.514;2023-03-01T15:41:56;24.02;;;14.90;;
41426;SDS011;27171;51.812;19.514;2023-03-01T15:48:18;28.10;;;18.55;;
41426;SDS011;27171;51.812;19.514;2023-03-01T15:51:27;37.40;;;24.75;;
41426;SDS011;27171;51.812;19.514;2023-03-01T15:54:30;18.45;;;12.88;;
41426;SDS011;27171;51.812;19.514;2023-03-01T15:57:32;21.35;;;15.98;;
41426;SDS011;27171;51.812;19.514;2023-03-01T16:06:35;13.73;;;8.65;;
41426;SDS011;27171;51.812;19.514;2023-03-01T16:09:36;11.70;;;7.88;;
41426;SDS011;27171;51.812;19.514;2023-03-01T16:12:37;15.60;;;8.80;;
41426;SDS011;27171;51.812;19.514;2023-03-01T16:18:42;22.35;;;12.52;;
41426;SDS011;27171;51.812;19.514;2023-03-01T16:21:45;19.77;;;11.18;;
41426;SDS011;27171;51.812;19.514;2023-03-01T16:24:46;18.13;;;10.27;;
41426;SDS011;27171;51.812;19.514;2023-03-01T16:30:50;16.10;;;10.45;;
41426;SDS011;27171;51.812;19.514;2023-03-01T16:36:53;14.27;;;9.13;;
41426;SDS011;27171;51.812;19.514;2023-03-01T16:39:54;14.23;;;8.93;;
41426;SDS011;27171;51.812;19.514;2023-03-01T16:42:56;14.57;;;8.73;;
41426;SDS011;27171;51.812;19.514;2023-03-01T16:45:58;14.95;;;9.10;;
41426;SDS011;27171;51.812;19.514;2023-03-01T16:49:00;15.50;;;8.90;;
41426;SDS011;27171;51.812;19.514;2023-03-01T16:52:01;15.02;;;9.13;;
41426;SDS011;27171;51.812;19.514;2023-03-01T16:58:04;21.92;;;11.18;;
41426;SDS011;27171;51.812;19.514;2023-03-01T17:04:21;31.38;;;17.02;;
41426;SDS011;27171;51.812;19.514;2023-03-01T17:07:23;29.70;;;17.30;;
41426;SDS011;27171;51.812;19.514;2023-03-01T17:10:24;28.27;;;15.57;;
41426;SDS011;27171;51.812;19.514;2023-03-01T17:13:26;25.30;;;14.23;;
41426;SDS011;27171;51.812;19.514;2023-03-01T17:16:27;24.40;;;13.38;;
41426;SDS011;27171;51.812;19.514;2023-03-01T17:19:29;25.17;;;13.27;;
41426;SDS011;27171;51.812;19.514;2023-03-01T17:22:30;20.42;;;11.95;;
41426;SDS011;27171;51.812;19.514;2023-03-01T17:25:34;27.00;;;13.20;;
41426;SDS011;27171;51.812;19.514;2023-03-01T17:28:37;21.48;;;11.98;;
41426;SDS011;27171;51.812;19.514;2023-03-01T17:31:39;19.75;;;11.27;;
41426;SDS011;27171;51.812;19.514;2023-03-01T17:34:40;19.67;;;11.10;;
41426;SDS011;27171;51.812;19.514;2023-03-01T17:37:42;18.73;;;11.40;;
41426;SDS011;27171;51.812;19.514;2023-03-01T17:40:43;14.93;;;9.63;;
41426;SDS011;27171;51.812;19.514;2023-03-01T17:43:46;16.77;;;9.52;;
41426;SDS011;27171;51.812;19.514;2023-03-01T17:46:48;16.27;;;9.55;;
41426;SDS011;27171;51.812;19.514;2023-03-01T17:49:52;17.20;;;9.77;;
41426;SDS011;27171;51.812;19.514;2023-03-01T17:53:00;18.10;;;9.82;;
41426;SDS011;27171;51.812;19.514;2023-03-01T17:56:02;18.15;;;9.23;;
41426;SDS011;27171;51.812;19.514;2023-03-01T17:59:05;19.70;;;10.25;;
41426;SDS011;27171;51.812;19.514;2023-03-01T18:02:06;18.25;;;11.27;;
41426;SDS011;27171;51.812;19.514;2023-03-01T18:05:11;19.92;;;11.23;;
41426;SDS011;27171;51.812;19.514;2023-03-01T18:08:13;17.13;;;10.30;;
41426;SDS011;27171;51.812;19.514;2023-03-01T18:11:18;18.33;;;10.30;;
41426;SDS011;27171;51.812;19.514;2023-03-01T18:14:20;19.80;;;11.07;;
41426;SDS011;27171;51.812;19.514;2023-03-01T18:17:22;23.60;;;12.55;;
41426;SDS011;27171;51.812;19.514;2023-03-01T18:20:24;21.58;;;11.98;;
41426;SDS011;27171;51.812;19.514;2023-03-01T18:23:29;24.50;;;13.45;;
41426;SDS011;27171;51.812;19.514;2023-03-01T18:26:31;26.35;;;14.60;;
41426;SDS011;27171;51.812;19.514;2023-03-01T18:29:32;28.58;;;15.75;;
41426;SDS011;27171;51.812;19.514;2023-03-01T18:32:36;26.60;;;15.27;;
41426;SDS011;27171;51.812;19.514;2023-03-01T18:35:38;28.35;;;15.88;;
41426;SDS011;27171;51.812;19.514;2023-03-01T18:38:40;34.05;;;17.45;;
41426;SDS011;27171;51.812;19.514;2023-03-01T18:41:43;42.83;;;24.35;;
41426;SDS011;27171;51.812;19.514;2023-03-01T18:44:44;35.15;;;20.80;;
41426;SDS011;27171;51.812;19.514;2023-03-01T18:47:46;39.08;;;22.23;;
41426;SDS011;27171;51.812;19.514;2023-03-01T18:50:47;38.60;;;21.67;;
41426;SDS011;27171;51.812;19.514;2023-03-01T18:53:50;49.85;;;24.58;;
41426;SDS011;27171;51.812;19.514;2023-03-01T18:56:51;43.63;;;25.65;;
41426;SDS011;27171;51.812;19.514;2023-03-01T18:59:55;44.50;;;23.92;;
41426;SDS011;27171;51.812;19.514;2023-03-01T19:02:57;41.72;;;25.52;;
41426;SDS011;27171;51.812;19.514;2023-03-01T19:05:59;46.88;;;25.75;;
41426;SDS011;27171;51.812;19.514;2023-03-01T19:09:00;43.80;;;25.48;;
41426;SDS011;27171;51.812;19.514;2023-03-01T19:12:02;46.35;;;25.75;;
41426;SDS011;27171;51.812;19.514;2023-03-01T19:15:05;38.83;;;22.83;;
41426;SDS011;27171;51.812;19.514;2023-03-01T19:18:07;49.28;;;25.88;;
41426;SDS011;27171;51.812;19.514;2023-03-01T19:24:10;45.55;;;24.48;;
41426;SDS011;27171;51.812;19.514;2023-03-01T19:27:12;41.88;;;25.00;;
41426;SDS011;27171;51.812;19.514;2023-03-01T19:30:13;41.97;;;24.13;;
41426;SDS011;27171;51.812;19.514;2023-03-01T19:33:15;38.20;;;23.13;;
41426;SDS011;27171;51.812;19.514;2023-03-01T19:36:16;38.38;;;24.08;;
41426;SDS011;27171;51.812;19.514;2023-03-01T19:39:17;40.67;;;22.45;;
41426;SDS011;27171;51.812;19.514;2023-03-01T19:42:18;42.65;;;22.33;;
41426;SDS011;27171;51.812;19.514;2023-03-01T19:45:19;40.40;;;23.17;;
41426;SDS011;27171;51.812;19.514;2023-03-01T19:48:21;44.97;;;23.48;;
41426;SDS011;27171;51.812;19.514;2023-03-01T19:51:22;40.45;;;21.63;;
41426;SDS011;27171;51.812;19.514;2023-03-01T19:57:24;38.13;;;21.67;;
41426;SDS011;27171;51.812;19.514;2023-03-01T20:00:25;41.35;;;23.65;;
41426;SDS011;27171;51.812;19.514;2023-03-01T20:03:27;37.10;;;22.55;;
41426;SDS011;27171;51.812;19.514;2023-03-01T20:06:30;43.42;;;23.98;;
41426;SDS011;27171;51.812;19.514;2023-03-01T20:09:32;45.35;;;24.50;;
41426;SDS011;27171;51.812;19.514;2023-03-01T20:12:35;45.63;;;26.15;;
41426;SDS011;27171;51.812;19.514;2023-03-01T20:15:39;47.38;;;27.95;;
41426;SDS011;27171;51.812;19.514;2023-03-01T20:18:54;45.63;;;26.45;;
41426;SDS011;27171;51.812;19.514;2023-03-01T20:21:57;41.55;;;25.00;;
41426;SDS011;27171;51.812;19.514;2023-03-01T20:24:58;48.75;;;25.77;;
41426;SDS011;27171;51.812;19.514;2023-03-01T20:27:59;45.20;;;26.40;;
41426;SDS011;27171;51.812;19.514;2023-03-01T20:31:07;44.30;;;25.58;;
41426;SDS011;27171;51.812;19.514;2023-03-01T20:34:12;46.70;;;25.73;;
41426;SDS011;27171;51.812;19.514;2023-03-01T20:37:21;45.47;;;25.48;;
41426;SDS011;27171;51.812;19.514;2023-03-01T20:40:22;44.95;;;24.23;;
41426;SDS011;27171;51.812;19.514;2023-03-01T20:43:23;42.80;;;24.17;;
41426;SDS011;27171;51.812;19.514;2023-03-01T20:46:25;46.30;;;25.05;;
41426;SDS011;27171;51.812;19.514;2023-03-01T20:49:26;41.58;;;24.63;;
41426;SDS011;27171;51.812;19.514;2023-03-01T20:52:27;43.72;;;25.00;;
41426;SDS011;27171;51.812;19.514;2023-03-01T20:58:30;42.75;;;24.23;;
41426;SDS011;27171;51.812;19.514;2023-03-01T21:01:31;47.97;;;25.85;;
41426;SDS011;27171;51.812;19.514;2023-03-01T21:04:32;49.63;;;28.48;;
41426;SDS011;27171;51.812;19.514;2023-03-01T21:07:33;47.70;;;26.25;;
41426;SDS011;27171;51.812;19.514;2023-03-01T21:10:34;44.67;;;24.95;;
41426;SDS011;27171;51.812;19.514;2023-03-01T21:16:36;38.85;;;23.77;;
41426;SDS011;27171;51.812;19.514;2023-03-01T21:19:38;45.90;;;26.30;;